Latest Weather Observations for Derby

IDW60801

Issued at 11:05 pm WST Wednesday 17 September 2014 (issued every 30 minutes, with the page automatically refreshed every 10 minutes)

About weather observations | Map of weather stations | Latest weather observations for WA | Other Formats
Station Details ID: 003032 Name: DERBY AERO Lat: -17.37 Lon: 123.66 Height: 6.2 m
Data from the previous 72 hours. | See also: Recent months at Derby
Date/Time
WST
Temp
°C
App
Temp
°C
Dew
Point
Rel
Hum
%
Delta-T
°C
Wind Press
QNH
hPa
Press
MSL
hPa
Rain
since 9 am
mm
Dir
 
Spd
km/h
Gust
km/h
Spd
kts
Gust
kts
17/11:00pm 23.9 25.6 19.4 76 2.9 WSW 9 13 5 7 1014.2 1014.2 0.0
17/10:30pm 24.5 26.2 20.2 77 2.8 W 11 13 6 7 1014.3 1014.3 0.0
17/10:00pm 25.0 26.1 20.5 76 2.9 W 15 17 8 9 1014.4 1014.4 0.0
17/09:30pm 25.1 27.6 21.0 78 2.7 W 9 11 5 6 1014.4 1014.4 0.0
17/09:00pm 25.6 28.1 21.1 76 3.0 NW 9 11 5 6 1014.3 1014.3 0.0
17/08:30pm 26.2 28.2 21.6 76 3.1 NW 13 17 7 9 1014.0 1014.0 0.0
17/08:00pm 26.4 28.2 21.8 76 3.1 NW 15 20 8 11 1013.8 1013.8 0.0
17/07:30pm 26.3 26.4 21.9 77 2.9 NNW 24 30 13 16 1013.5 1013.5 0.0
17/07:00pm 26.6 26.3 21.1 72 3.6 NNW 24 28 13 15 1013.1 1013.1 0.0
17/06:30pm 26.7 27.4 21.5 73 3.5 NNW 20 28 11 15 1012.8 1012.8 0.0
17/06:00pm 26.7 27.4 21.2 72 3.6 N 19 24 10 13 1012.3 1012.3 0.0
17/05:30pm 27.1 26.6 21.4 71 3.8 NNW 26 30 14 16 1012.1 1012.1 0.0
17/05:00pm 27.9 27.0 21.4 67 4.3 NNW 28 33 15 18 1011.7 1011.7 0.0
17/04:30pm 29.3 27.4 19.3 55 6.5 NNW 28 33 15 18 1011.6 1011.6 0.0
17/04:00pm 31.2 28.0 16.4 41 9.3 NNW 28 32 15 17 1011.3 1011.3 0.0
17/03:30pm 34.2 30.6 12.0 26 13.2 NNW 22 28 12 15 1011.2 1011.2 0.0
17/03:00pm 34.7 30.8 6.9 18 15.3 NNW 17 20 9 11 1011.2 1011.2 0.0
17/02:30pm 35.0 31.5 7.1 18 15.4 NNW 15 20 8 11 1011.4 1011.4 0.0
17/02:00pm 35.0 32.2 7.1 18 15.4 NW 11 17 6 9 1011.7 1011.7 0.0
17/01:30pm 33.9 32.0 10.5 24 13.6 NW 11 19 6 10 1012.1 1012.1 0.0
17/01:00pm 32.4 31.5 13.6 32 11.4 NW 11 17 6 9 1012.7 1012.7 0.0
17/12:30pm 32.2 31.8 16.1 38 10.1 NW 13 19 7 10 1013.1 1013.1 0.0
17/12:00pm 30.4 30.4 18.2 48 7.8 NW 15 22 8 12 1013.5 1013.5 0.0
17/11:30am 29.5 29.7 20.1 57 6.2 NW 19 22 10 12 1013.9 1013.9 0.0
17/11:00am 28.9 29.1 20.6 61 5.5 NW 20 28 11 15 1014.4 1014.4 0.0
17/10:30am 28.1 27.8 21.1 65 4.7 NW 24 28 13 15 1014.7 1014.7 0.0
17/10:00am 28.5 28.8 21.5 66 4.7 NW 22 30 12 16 1015.1 1015.1 0.0
17/09:30am 28.5 29.1 21.0 64 5.0 NNW 19 26 10 14 1015.4 1015.4 0.0
17/09:00am 27.4 28.2 21.4 70 4.0 NW 19 26 10 14 1015.2 1015.2 0.0
17/08:30am 26.9 28.0 21.2 71 3.8 NNW 17 24 9 13 1015.2 1015.2 0.0
17/08:00am 26.5 29.0 21.7 75 3.2 N 11 17 6 9 1015.1 1015.1 0.0
17/07:30am 24.9 27.2 22.0 84 1.9 N 13 15 7 8 1014.7 1014.7 0.0
17/07:00am 23.2 26.0 21.5 90 1.1 NNE 9 13 5 7 1014.3 1014.3 0.0
17/06:30am 21.3 23.1 20.3 94 0.6 NNE 11 13 6 7 1013.8 1013.8 0.0
17/06:00am 20.5 22.1 20.0 97 0.3 NE 11 13 6 7 1013.5 1013.5 0.0
17/05:30am 20.3 21.3 19.5 95 0.5 NE 13 15 7 8 1013.1 1013.1 0.0
17/05:00am 20.5 21.8 19.3 93 0.8 NNE 11 13 6 7 1012.8 1012.8 0.0
17/04:30am 20.4 21.1 18.9 91 0.9 NNE 13 17 7 9 1012.3 1012.3 0.0
17/04:00am 20.6 21.8 19.1 91 0.9 N 11 15 6 8 1011.7 1011.7 0.0
17/03:30am 20.7 22.4 19.4 92 0.8 NNE 9 11 5 6 1011.5 1011.5 0.0
17/03:00am 20.8 22.4 19.1 90 1.1 NNE 9 11 5 6 1011.2 1011.2 0.0
17/02:30am 20.8 22.6 18.4 86 1.5 NE 6 7 3 4 1011.2 1011.2 0.0
17/02:00am 21.5 23.3 18.7 84 1.8 NNE 7 9 4 5 1011.4 1011.4 0.0
17/01:30am 22.0 23.2 16.9 73 3.1 NE 6 9 3 5 1011.4 1011.4 0.0
17/01:00am 23.5 23.8 17.0 67 4.0 N 11 17 6 9 1011.3 1011.3 0.0
17/12:30am 22.2 22.7 16.5 70 3.5 ENE 9 13 5 7 1011.2 1011.2 0.0
17/12:00am 22.8 23.5 17.0 70 3.6 SSW 9 13 5 7 1010.9 1010.9 0.0
 
Date/Time
WST
Temp
°C
App
Temp
°C
Dew
Point
Rel
Hum
%
Delta-T
°C
Wind Press
QNH
hPa
Press
MSL
hPa
Rain
since 9 am
mm
Dir
 
Spd
km/h
Gust
km/h
Spd
kts
Gust
kts
16/11:30pm 23.7 24.9 17.4 68 3.9 WSW 7 9 4 5 1011.1 1011.1 0.0
16/11:00pm 23.8 24.1 17.8 69 3.7 ESE 13 17 7 9 1011.5 1011.5 0.0
16/10:30pm 24.7 25.3 17.7 65 4.4 SW 11 17 6 9 1011.3 1011.3 0.0
16/10:00pm 24.1 24.5 18.1 69 3.8 WSW 13 17 7 9 1011.4 1011.4 0.0
16/09:30pm 24.3 24.9 18.7 71 3.6 W 13 15 7 8 1011.7 1011.7 0.0
16/09:00pm 24.9 27.3 19.7 73 3.4 WSW 6 9 3 5 1011.9 1011.9 0.0
16/08:30pm 25.4 27.2 20.4 74 3.3 NNW 11 13 6 7 1011.6 1011.6 0.0
16/08:00pm 26.0 27.2 20.6 72 3.5 NNW 15 19 8 10 1011.4 1011.4 0.0
16/07:30pm 26.3 26.4 19.9 68 4.2 NNW 19 24 10 13 1010.9 1010.9 0.0
16/07:00pm 26.3 26.4 19.9 68 4.2 NNW 19 22 10 12 1010.5 1010.5 0.0
16/06:30pm 26.6 26.7 20.4 69 4.1 NNW 20 26 11 14 1010.1 1010.1 0.0
16/06:00pm 26.8 26.9 21.1 71 3.8 NNW 22 28 12 15 1009.8 1009.8 0.0
16/05:30pm 27.5 26.9 21.3 69 4.1 NNW 26 30 14 16 1009.4 1009.4 0.0
16/05:00pm 29.2 27.7 18.6 52 6.8 NW 24 28 13 15 1009.1 1009.1 0.0
16/04:30pm 30.1 28.7 18.8 50 7.3 NNW 24 28 13 15 1009.0 1009.0 0.0
16/04:00pm 31.4 29.3 18.0 44 8.6 NNW 26 32 14 17 1009.0 1009.0 0.0
16/03:30pm 32.1 29.5 16.0 38 10.1 NNW 24 28 13 15 1009.0 1009.0 0.0
16/03:00pm 34.2 31.4 13.1 28 12.8 NW 20 26 11 14 1008.9 1008.9 0.0
16/02:30pm 34.7 31.9 11.2 24 13.8 NNW 17 22 9 12 1009.1 1009.1 0.0
16/02:00pm 34.3 32.3 11.4 25 13.5 NNW 13 19 7 10 1009.3 1009.3 0.0
16/01:30pm 34.1 32.4 11.3 25 13.4 N 11 17 6 9 1009.7 1009.7 0.0
16/01:00pm 33.4 31.8 14.0 31 11.8 NNW 15 19 8 10 1010.2 1010.2 0.0
16/12:30pm 32.8 32.2 13.4 30 11.7 NW 9 17 5 9 1010.8 1010.8 0.0
16/12:00pm 32.4 32.0 14.1 33 11.1 NW 9 17 5 9 1011.4 1011.4 0.0
16/11:30am 30.6 29.7 13.8 35 10.1 N 11 17 6 9 1012.0 1012.0 0.0
16/11:00am 30.8 30.0 14.0 36 10.2 NNW 11 17 6 9 1012.5 1012.5 0.0
16/10:30am 30.2 28.7 13.0 34 10.2 NW 13 19 7 10 1013.1 1013.1 0.0
16/10:00am 28.9 28.0 15.8 45 8.1 WNW 15 20 8 11 1013.5 1013.5 0.0
16/09:30am 28.3 28.7 18.1 54 6.5 NW 13 19 7 10 1013.6 1013.6 0.0
16/09:00am 26.6 27.7 20.4 69 4.1 NNW 15 20 8 11 1013.8 1013.8 0.0
16/08:30am 26.7 27.8 21.2 72 3.6 NW 17 24 9 13 1013.8 1013.8 0.0
16/08:00am 25.7 27.3 21.4 77 2.8 NW 15 19 8 10 1013.7 1013.7 0.0
16/07:30am 24.4 26.9 20.3 78 2.7 NNW 7 9 4 5 1013.6 1013.6 0.0
16/07:00am 22.7 25.4 18.7 78 2.5 E 2 7 1 4 1013.2 1013.2 0.0
16/06:30am 19.7 20.4 15.6 77 2.4 ENE 6 9 3 5 1012.9 1012.9 0.0
16/06:00am 17.5 18.4 15.0 85 1.5 E 4 6 2 3 1012.5 1012.5 0.0
16/05:30am 17.4 17.4 13.5 78 2.2 NE 6 9 3 5 1012.1 1012.1 0.0
16/05:00am 18.9 19.0 14.4 75 2.6 NE 7 9 4 5 1011.8 1011.8 0.0
16/04:30am 19.4 18.9 13.8 70 3.2 N 9 11 5 6 1011.6 1011.6 0.0
16/04:00am 19.0 18.7 13.2 69 3.3 NE 7 11 4 6 1011.5 1011.5 0.0
16/03:30am 18.4 17.4 12.2 67 3.4 N 9 13 5 7 1011.2 1011.2 0.0
16/03:00am 18.8 18.4 12.3 66 3.6 NE 6 7 3 4 1010.9 1010.9 0.0
16/02:30am 19.8 19.0 12.8 64 3.9 ESE 9 11 5 6 1010.8 1010.8 0.0
16/02:00am 19.0 19.5 12.7 67 3.5 SE 2 9 1 5 1010.5 1010.5 0.0
16/01:30am 19.2 20.3 13.4 69 3.3 CALM 0 7 0 4 1010.7 1010.7 0.0
16/01:00am 19.6 20.9 14.0 70 3.2 CALM 0 0 0 0 1010.7 1010.7 0.0
16/12:30am 19.9 21.2 14.0 69 3.4 CALM 0 4 0 2 1011.0 1011.0 0.0
16/12:00am 20.2 20.7 14.1 68 3.5 S 4 7 2 4 1011.0 1011.0 0.0
 
Date/Time
WST
Temp
°C
App
Temp
°C
Dew
Point
Rel
Hum
%
Delta-T
°C
Wind Press
QNH
hPa
Press
MSL
hPa
Rain
since 9 am
mm
Dir
 
Spd
km/h
Gust
km/h
Spd
kts
Gust
kts
15/11:30pm 21.4 23.0 14.8 66 3.9 CALM 0 0 0 0 1011.4 1011.4 0.0
15/11:00pm 22.2 23.5 15.1 64 4.2 NNE 2 9 1 5 1011.3 1011.3 0.0
15/10:30pm 23.8 24.3 15.0 57 5.3 SSW 6 7 3 4 1011.4 1011.4 0.0
15/10:00pm 24.7 25.3 15.3 56 5.7 SSW 6 9 3 5 1011.5 1011.5 0.0
15/09:30pm 26.0 24.7 15.7 53 6.3 WNW 17 19 9 10 1011.4 1011.4 0.0
15/09:00pm 25.8 26.1 16.9 58 5.5 NW 11 15 6 8 1011.5 1011.5 0.0
15/08:30pm 26.6 26.1 17.9 59 5.5 WNW 17 20 9 11 1011.4 1011.4 0.0
15/08:00pm 26.2 26.4 19.3 65 4.4 NW 17 20 9 11 1011.4 1011.4 0.0
15/07:30pm 26.0 26.4 18.9 65 4.5 NNW 15 17 8 9 1011.1 1011.1 0.0
15/07:00pm 26.3 25.7 18.9 63 4.7 NNW 20 24 11 13 1010.6 1010.6 0.0
15/06:30pm 27.0 25.8 15.1 48 7.2 N 15 24 8 13 1010.4 1010.4 0.0
15/06:00pm 27.8 24.7 13.3 40 8.6 NNW 22 28 12 15 1010.0 1010.0 0.0
15/05:30pm 29.1 26.5 12.1 35 9.9 NW 17 24 9 13 1009.9 1009.9 0.0
15/05:00pm 31.3 28.8 11.1 29 11.7 NW 15 19 8 10 1009.6 1009.6 0.0
15/04:30pm 31.7 27.9 9.8 26 12.4 NW 20 24 11 13 1009.5 1009.5 0.0
15/04:00pm 32.5 28.3 9.9 25 12.9 NW 22 26 12 14 1009.6 1009.6 0.0
15/03:30pm 33.4 28.4 8.1 21 14.1 NW 24 28 13 15 1009.5 1009.5 0.0
15/03:00pm 33.4 29.3 10.1 24 13.4 NW 22 26 12 14 1009.7 1009.7 0.0
15/02:30pm 33.8 28.7 7.7 20 14.5 NNW 24 30 13 16 1010.0 1010.0 0.0
15/02:00pm 35.1 30.8 10.9 23 14.2 NW 24 30 13 16 1010.3 1010.3 0.0
15/01:30pm 34.0 31.2 15.4 32 11.6 NNW 24 30 13 16 1010.8 1010.8 0.0
15/01:00pm 32.9 31.8 19.4 45 8.9 NW 24 30 13 16 1011.2 1011.2 0.0
15/12:30pm 33.3 31.9 17.0 37 10.4 NW 20 28 11 15 1011.6 1011.6 0.0
15/12:00pm 33.2 30.6 13.3 30 12.0 NW 19 24 10 13 1012.1 1012.1 0.0
15/11:30am 33.1 31.3 13.2 30 12.0 NW 15 22 8 12 1012.6 1012.6 0.0
15/11:00am 32.6 29.6 9.4 24 13.1 NW 15 22 8 12 1013.0 1013.0 0.0
15/10:30am 30.2 32.7 21.8 60 5.7 NW 11 17 6 9 1013.5 1013.5 0.0
15/10:00am 29.8 32.8 22.0 63 5.3 WNW 9 17 5 9 1013.8 1013.8 0.0
15/09:30am 28.0 30.9 21.8 69 4.2 NW 9 15 5 8 1014.0 1014.0 0.0
15/09:00am 27.6 30.0 20.9 67 4.4 NNW 9 13 5 7 1014.2 1014.2 0.0
15/08:30am 25.7 28.7 22.0 80 2.5 NNW 9 15 5 8 1014.3 1014.3 0.0
15/08:00am 23.4 26.6 23.1 98 0.2 NNW 11 13 6 7 1014.2 1014.2 0.0
15/07:30am 21.8 24.6 21.6 99 0.1 N 9 13 5 7 1013.9 1013.9 0.0
15/07:00am 21.1 23.9 20.9 99 0.1 N 7 9 4 5 1013.6 1013.6 0.0
15/06:30am 19.7 23.2 19.5 99 0.1 CALM 0 7 0 4 1013.2 1013.2 0.0
15/06:00am 18.9 22.0 18.6 98 0.2 CALM 0 0 0 0 1012.8 1012.8 0.0
15/05:30am 19.0 22.0 18.5 97 0.3 CALM 0 0 0 0 1012.4 1012.4 0.0
15/05:00am 18.8 20.9 17.3 91 0.9 E 2 7 1 4 1012.2 1012.2 0.0
15/04:30am 18.3 20.1 16.5 89 1.1 ESE 2 9 1 5 1012.0 1012.0 0.0
15/04:00am 18.9 20.7 17.4 91 0.9 SSE 4 7 2 4 1011.9 1011.9 0.0
15/03:30am 19.4 21.9 18.1 92 0.8 E 2 6 1 3 1011.7 1011.7 0.0
15/03:00am 19.9 22.9 18.4 91 0.9 CALM 0 0 0 0 1011.6 1011.6 0.0
15/02:30am 20.7 23.0 19.4 92 0.8 NNE 6 6 3 3 1011.7 1011.7 0.0
15/02:00am 21.0 23.4 19.6 92 0.9 ENE 6 7 3 4 1011.8 1011.8 0.0
15/01:30am 21.4 24.0 20.0 92 0.9 NNE 6 7 3 4 1011.7 1011.7 0.0
15/01:00am 21.4 23.6 19.3 88 1.3 NE 6 9 3 5 1011.8 1011.8 0.0
15/12:30am 21.5 22.9 18.7 84 1.8 NNE 9 11 5 6 1011.8 1011.8 0.0
15/12:00am 21.6 22.7 18.8 84 1.8 NNE 11 15 6 8 1011.8 1011.8 0.0
 
Date/Time
WST
Temp
°C
App
Temp
°C
Dew
Point
Rel
Hum
%
Delta-T
°C
Wind Press
QNH
hPa
Press
MSL
hPa
Rain
since 9 am
mm
Dir
 
Spd
km/h
Gust
km/h
Spd
kts
Gust
kts
14/11:30pm 22.3 24.2 19.7 85 1.7 NE 9 11 5 6 1011.9 1011.9 0.0

Other Formats:

Comma delimited format used in spreadsheet applications
http://www.bom.gov.au/fwo/IDW60801/IDW60801.95205.axf

JavaScript Object Notation format (JSON) in row-major order
http://www.bom.gov.au/fwo/IDW60801/IDW60801.95205.json